Orbital elements of SHIJIAN-6 03B
| Launched | 24 October 2008 |
| Flight ended | – |
| Launch site | Taiyuan Space Center, PRC |
| Owner | People's Republic of China |
| NORAD ID | 33409 |
| Alternative names |
SJ-6 03B |
| Date fetched |
Epoch osculation |
Inc. [°] |
Ecc. | RA asc node [hr] |
Arg Peri. [°] |
Mean anom [°] |
Mean motion [rev/day] |
Abs. mag |
| Date fetched |
Epoch osculation |
Inc. [°] |
Ecc. | RA asc node [hr] |
Arg Peri. [°] |
Mean anom [°] |
Mean motion [rev/day] |
Abs. mag |
| 2026 May 01 17:56 | 2026 May 01 12:51:15 | 97.8590 | 0.00190 | 9.3768 | 195.3879 | 164.6770 | 15.04171 | 6.243 |
| 2026 Apr 30 17:56 | 2026 Apr 30 12:54:20 | 97.8591 | 0.00190 | 9.3092 | 198.7691 | 164.6770 | 15.04171 | 6.243 |
| 2026 Apr 29 17:57 | 2026 Apr 29 12:57:26 | 97.8590 | 0.00188 | 9.2416 | 202.1872 | 164.6770 | 15.04171 | 6.243 |
| 2026 Apr 28 17:56 | 2026 Apr 28 13:00:30 | 97.8592 | 0.00188 | 9.1740 | 205.4646 | 164.6770 | 15.04171 | 6.243 |
| 2026 Apr 27 17:58 | 2026 Apr 27 13:03:35 | 97.8594 | 0.00187 | 9.1064 | 208.7921 | 164.6770 | 15.04171 | 6.243 |
| 2026 Apr 26 17:58 | 2026 Apr 26 13:06:39 | 97.8597 | 0.00186 | 9.0387 | 212.1631 | 164.6770 | 15.04171 | 6.243 |
| 2026 Apr 25 17:58 | 2026 Apr 25 13:09:43 | 97.8601 | 0.00184 | 8.9711 | 215.5500 | 164.6770 | 15.04171 | 6.243 |
| 2026 Apr 24 17:59 | 2026 Apr 24 13:12:47 | 97.8604 | 0.00182 | 8.9035 | 218.8753 | 164.6770 | 15.04171 | 6.243 |
| 2026 Apr 23 17:57 | 2026 Apr 23 06:52:40 | 97.8607 | 0.00181 | 8.8178 | 223.1171 | 164.6770 | 15.04171 | 6.243 |
| 2026 Apr 22 17:57 | 2026 Apr 22 06:55:43 | 97.8609 | 0.00179 | 8.7502 | 226.4494 | 164.6770 | 15.04171 | 6.243 |
| 2026 Apr 21 17:57 | 2026 Apr 21 11:46:10 | 97.8609 | 0.00178 | 8.6961 | 229.1684 | 164.6770 | 15.04171 | 6.243 |
| 2026 Apr 20 17:57 | 2026 Apr 20 11:49:13 | 97.8612 | 0.00177 | 8.6284 | 232.6445 | 164.6770 | 15.04171 | 6.243 |
| 2026 Apr 19 17:58 | 2026 Apr 19 11:52:16 | 97.8615 | 0.00176 | 8.5608 | 236.2464 | 164.6770 | 15.04171 | 6.243 |
| 2026 Apr 18 17:56 | 2026 Apr 18 07:07:55 | 97.8621 | 0.00175 | 8.4796 | 240.4885 | 164.6770 | 15.04171 | 6.243 |
| 2026 Apr 16 17:57 | 2026 Apr 16 07:14:01 | 97.8628 | 0.00174 | 8.3443 | 247.9076 | 164.6770 | 15.04171 | 6.243 |
| 2026 Apr 14 17:57 | 2026 Apr 14 12:07:29 | 97.8635 | 0.00174 | 8.2225 | 254.8044 | 164.6770 | 15.04171 | 6.243 |
| 2026 Apr 13 17:57 | 2026 Apr 13 07:23:08 | 97.8640 | 0.00174 | 8.1414 | 259.2446 | 164.6770 | 15.04171 | 6.243 |
| 2026 Apr 12 17:57 | 2026 Apr 12 12:13:34 | 97.8641 | 0.00175 | 8.0873 | 262.0857 | 164.6770 | 15.04171 | 6.243 |
| 2026 Apr 11 17:57 | 2026 Apr 11 12:16:36 | 97.8643 | 0.00175 | 8.0196 | 265.8905 | 164.6770 | 15.04171 | 6.243 |
| 2026 Apr 10 17:58 | 2026 Apr 10 07:32:15 | 97.8643 | 0.00177 | 7.9384 | 270.4404 | 164.6770 | 15.04171 | 6.243 |
| 2026 Apr 09 18:01 | 2026 Apr 09 07:35:16 | 97.8644 | 0.00177 | 7.8707 | 273.9765 | 164.6770 | 15.04171 | 6.243 |
| 2026 Apr 08 17:57 | 2026 Apr 08 07:38:18 | 97.8641 | 0.00178 | 7.8031 | 277.4912 | 164.6770 | 15.04171 | 6.243 |
| 2026 Apr 07 17:57 | 2026 Apr 07 06:05:31 | 97.8638 | 0.00180 | 7.7309 | 281.4353 | 164.6770 | 15.04171 | 6.243 |
| 2026 Apr 06 17:57 | 2026 Apr 06 06:08:32 | 97.8633 | 0.00182 | 7.6632 | 285.1070 | 164.6770 | 15.04171 | 6.243 |
| 2026 Apr 05 17:56 | 2026 Apr 05 12:34:44 | 97.8633 | 0.00182 | 7.6136 | 287.7463 | 164.6770 | 15.04171 | 6.243 |
| 2026 Apr 04 17:57 | 2026 Apr 04 07:50:20 | 97.8630 | 0.00182 | 7.5325 | 291.7862 | 164.6770 | 15.04171 | 6.243 |